Time;durP1;ratioP1;P1;durP2;ratioP2;P2;SDS_P1;SDS_P2;PMS_P1;PMS_P2;Temp;Humidity;BMP_temperature;BMP_pressure;BME280_temperature;BME280_humidity;BME280_pressure;Samples;Min_cycle;Max_cycle;Signal;HPM_P1;HPM_P2
2022/06/11 00:00:39;;;;;;;5.20;2.15;;;21.90;99.90;;;;;;2093359;28;20032;-70
2022/06/11 00:01:48;;;;;;;3.38;2.13;;;21.90;99.90;;;;;;2096859;28;20028;-70
2022/06/11 00:02:48;;;;;;;6.47;2.63;;;21.90;99.90;;;;;;2092773;28;20021;-70
2022/06/11 00:03:52;;;;;;;5.85;2.20;;;21.80;99.90;;;;;;2092359;28;20036;-70
2022/06/11 00:04:53;;;;;;;6.35;2.22;;;21.90;99.90;;;;;;2095057;28;20193;-70
2022/06/11 00:05:53;;;;;;;5.40;2.22;;;21.90;99.90;;;;;;2094671;28;20115;-70
2022/06/11 00:06:59;;;;;;;5.07;2.10;;;21.80;99.90;;;;;;2093683;28;20024;-70
2022/06/11 00:08:00;;;;;;;5.90;2.58;;;21.90;99.90;;;;;;2096645;28;20032;-70
2022/06/11 00:09:01;;;;;;;6.97;2.50;;;21.80;99.90;;;;;;2096229;28;20111;-70
2022/06/11 00:10:02;;;;;;;5.15;2.05;;;21.80;99.90;;;;;;2093422;28;20031;-70
2022/06/11 00:11:03;;;;;;;6.55;2.30;;;21.80;99.90;;;;;;2095990;28;20059;-70
2022/06/11 00:12:05;;;;;;;4.95;2.22;;;21.80;99.90;;;;;;2095716;28;20025;-70
2022/06/11 00:13:07;;;;;;;5.80;2.30;;;21.80;99.90;;;;;;2093975;28;20499;-70
2022/06/11 00:14:08;;;;;;;4.20;2.38;;;21.80;99.90;;;;;;2096199;28;20037;-70
2022/06/11 00:15:09;;;;;;;5.03;2.33;;;21.80;99.90;;;;;;2094376;28;20521;-70
2022/06/11 00:16:11;;;;;;;6.63;2.63;;;21.80;99.90;;;;;;2096901;28;20560;-70
2022/06/11 00:17:15;;;;;;;5.50;2.72;;;21.80;99.90;;;;;;2095054;28;20368;-70
2022/06/11 00:18:16;;;;;;;5.70;2.50;;;21.70;99.90;;;;;;2093292;28;20651;-70
2022/06/11 00:19:20;;;;;;;5.80;2.50;;;21.80;99.90;;;;;;2096563;28;20021;-70
2022/06/11 00:20:21;;;;;;;7.13;2.50;;;21.80;99.90;;;;;;2095475;28;20537;-70
2022/06/11 00:21:24;;;;;;;5.20;2.42;;;21.80;99.90;;;;;;2093037;28;20106;-70
2022/06/11 00:22:25;;;;;;;7.70;2.80;;;21.80;99.90;;;;;;2099028;28;20491;-70
2022/06/11 00:23:26;;;;;;;5.85;2.30;;;21.80;99.90;;;;;;2095246;28;20494;-70
2022/06/11 00:24:28;;;;;;;5.70;2.70;;;21.80;99.90;;;;;;2095375;28;20028;-70
2022/06/11 00:25:31;;;;;;;5.28;2.60;;;21.70;99.90;;;;;;2096795;28;20677;-70
2022/06/11 00:26:32;;;;;;;5.82;2.53;;;21.70;99.90;;;;;;2090386;28;20029;-70
2022/06/11 00:27:32;;;;;;;4.70;2.03;;;21.70;99.90;;;;;;2095646;28;20381;-70
2022/06/11 00:28:34;;;;;;;8.90;3.10;;;21.70;99.90;;;;;;2093550;28;20029;-70
2022/06/11 00:29:37;;;;;;;6.78;3.00;;;21.70;99.90;;;;;;2097497;28;20021;-70
2022/06/11 00:30:37;;;;;;;5.53;2.42;;;21.70;99.90;;;;;;2099104;28;20036;-70
2022/06/11 00:31:38;;;;;;;5.63;2.53;;;21.70;99.90;;;;;;2095880;28;20058;-70
2022/06/11 00:32:39;;;;;;;2.83;2.03;;;21.70;99.90;;;;;;2094139;28;20032;-69
2022/06/11 00:33:40;;;;;;;5.00;2.15;;;21.70;99.90;;;;;;2095814;28;20037;-70
2022/06/11 00:34:42;;;;;;;5.30;2.47;;;21.70;99.90;;;;;;2096762;28;20107;-70
2022/06/11 00:35:43;;;;;;;6.93;2.58;;;21.60;99.90;;;;;;2092492;28;20027;-70
2022/06/11 00:36:45;;;;;;;5.97;2.42;;;21.70;99.90;;;;;;2098064;28;20031;-70
2022/06/11 00:37:46;;;;;;;7.18;2.45;;;21.60;99.90;;;;;;2097573;28;20025;-69
2022/06/11 00:38:48;;;;;;;7.78;2.60;;;21.60;99.90;;;;;;2098129;28;20029;-69
2022/06/11 00:39:48;;;;;;;8.20;2.70;;;21.60;99.90;;;;;;2093878;28;20031;-69
2022/06/11 00:40:51;;;;;;;9.77;2.72;;;21.60;99.90;;;;;;2096501;28;20048;-69
2022/06/11 00:41:58;;;;;;;9.25;2.63;;;21.60;99.90;;;;;;2094826;28;20050;-69
2022/06/11 00:42:58;;;;;;;8.90;2.60;;;21.60;99.90;;;;;;2095504;28;20021;-69
2022/06/11 00:43:59;;;;;;;5.68;2.30;;;21.60;99.90;;;;;;2097503;28;20035;-69
2022/06/11 00:45:13;;;;;;;4.25;2.00;;;21.60;99.90;;;;;;2095660;28;20021;-69
2022/06/11 00:46:34;;;;;;;6.13;2.03;;;21.60;99.90;;;;;;2098698;28;20016;-69
2022/06/11 00:47:35;;;;;;;5.45;2.10;;;21.60;99.90;;;;;;2096244;28;20082;-69
2022/06/11 00:48:39;;;;;;;5.45;2.20;;;21.50;99.90;;;;;;2094337;28;20102;-69
2022/06/11 00:49:54;;;;;;;8.88;2.13;;;21.60;99.90;;;;;;2093331;28;20036;-69
2022/06/11 00:51:01;;;;;;;5.65;2.50;;;21.60;99.90;;;;;;2094716;28;20123;-69
2022/06/11 00:52:31;;;;;;;5.45;2.03;;;21.50;99.90;;;;;;2091988;28;20017;-69
2022/06/11 00:54:04;;;;;;;5.97;2.28;;;21.50;99.90;;;;;;2089533;28;20080;-69
2022/06/11 00:55:10;;;;;;;5.18;1.80;;;21.50;99.90;;;;;;2093739;28;20546;-69
2022/06/11 00:56:37;;;;;;;5.32;2.08;;;21.50;99.90;;;;;;2096993;28;20041;-69
2022/06/11 00:57:50;;;;;;;5.13;2.40;;;21.50;99.90;;;;;;2087543;28;20369;-69
2022/06/11 00:58:54;;;;;;;5.55;2.47;;;21.50;99.90;;;;;;2095482;28;20514;-69
2022/06/11 01:00:00;;;;;;;5.45;2.30;;;21.50;99.90;;;;;;2092517;28;20104;-69
2022/06/11 01:01:01;;;;;;;8.77;3.13;;;21.50;99.90;;;;;;2096640;28;20029;-69
2022/06/11 01:02:03;;;;;;;9.02;2.50;;;21.50;99.90;;;;;;2094076;28;20047;-70
2022/06/11 01:03:05;;;;;;;6.68;2.70;;;21.50;99.90;;;;;;2096339;28;20016;-70
2022/06/11 01:04:49;;;;;;;5.55;2.47;;;21.50;99.90;;;;;;2098638;28;20548;-70
2022/06/11 01:06:18;;;;;;;5.35;2.40;;;21.50;99.90;;;;;;2079754;28;20037;-70
2022/06/11 01:07:40;;;;;;;4.63;2.40;;;21.50;99.90;;;;;;2078817;28;20036;-70
2022/06/11 01:08:44;;;;;;;5.90;2.53;;;21.50;99.90;;;;;;2078558;28;20653;-70
2022/06/11 01:10:03;;;;;;;6.53;2.25;;;21.50;99.90;;;;;;2081410;28;20029;-69
2022/06/11 01:11:41;;;;;;;6.07;2.60;;;21.50;99.90;;;;;;2082772;28;20025;-69
2022/06/11 01:13:10;;;;;;;7.07;2.17;;;21.50;99.90;;;;;;2094973;28;20021;-69
2022/06/11 01:14:22;;;;;;;8.30;2.63;;;21.40;99.90;;;;;;2079625;28;20108;-69
2022/06/11 01:15:44;;;;;;;6.13;2.13;;;21.40;99.90;;;;;;2096215;28;20021;-69
2022/06/11 01:17:15;;;;;;;8.70;2.53;;;21.40;99.90;;;;;;2099268;28;20105;-69
2022/06/11 01:18:28;;;;;;;4.35;2.13;;;21.40;99.90;;;;;;2098556;28;20048;-69
2022/06/11 01:20:09;;;;;;;6.68;2.05;;;21.40;99.90;;;;;;2097080;28;20027;-69
2022/06/11 01:21:31;;;;;;;5.13;2.45;;;21.40;99.90;;;;;;2096224;28;20027;-69
2022/06/11 01:22:50;;;;;;;5.32;2.33;;;21.40;99.90;;;;;;2094050;28;20025;-69
2022/06/11 01:24:03;;;;;;;6.53;2.40;;;21.40;99.90;;;;;;2094180;28;20481;-69
2022/06/11 01:25:06;;;;;;;5.05;2.42;;;21.40;99.90;;;;;;2097562;28;20353;-69
2022/06/11 01:26:35;;;;;;;6.65;2.13;;;21.40;99.90;;;;;;2096133;28;20032;-69
2022/06/11 01:27:44;;;;;;;5.05;2.60;;;21.40;99.90;;;;;;2093149;28;20027;-69
2022/06/11 01:29:10;;;;;;;7.85;2.83;;;21.40;99.90;;;;;;2097881;28;20133;-70
2022/06/11 01:30:23;;;;;;;4.53;1.85;;;21.40;99.90;;;;;;2096138;28;20036;-70
2022/06/11 01:31:45;;;;;;;5.68;2.47;;;21.50;99.90;;;;;;2092611;28;20032;-70
2022/06/11 01:33:29;;;;;;;6.30;2.38;;;21.50;99.90;;;;;;2096995;28;20021;-70
2022/06/11 01:34:51;;;;;;;7.53;2.30;;;21.40;99.90;;;;;;2070727;28;20516;-70
2022/06/11 01:36:09;;;;;;;4.97;2.22;;;21.40;99.90;;;;;;2094654;28;20111;-70
2022/06/11 01:37:18;;;;;;;5.45;2.28;;;21.40;99.90;;;;;;2095428;28;20041;-70
2022/06/11 01:38:43;;;;;;;4.35;2.28;;;21.40;99.90;;;;;;2097531;28;20679;-70
2022/06/11 01:39:53;;;;;;;6.75;2.55;;;21.40;99.90;;;;;;2096605;28;20524;-70
2022/06/11 01:41:15;;;;;;;5.55;2.38;;;21.40;99.90;;;;;;2098494;28;20429;-70
2022/06/11 01:42:26;;;;;;;4.38;1.95;;;21.40;99.90;;;;;;2096643;28;20510;-70
2022/06/11 01:43:43;;;;;;;7.25;2.30;;;21.40;99.90;;;;;;2097566;28;20025;-70
2022/06/11 01:44:44;;;;;;;5.90;2.13;;;21.40;99.90;;;;;;2096159;28;20032;-70
2022/06/11 01:45:47;;;;;;;6.45;2.38;;;21.40;99.90;;;;;;2097237;28;20031;-70
2022/06/11 01:46:53;;;;;;;4.50;2.10;;;21.40;99.90;;;;;;2094846;28;20024;-70
2022/06/11 01:47:56;;;;;;;4.68;1.80;;;21.40;99.90;;;;;;2097037;28;20400;-70
2022/06/11 01:49:01;;;;;;;6.97;2.53;;;21.40;99.90;;;;;;2096564;28;20039;-70
2022/06/11 01:50:07;;;;;;;4.05;2.25;;;21.40;99.90;;;;;;2094702;28;20021;-70
2022/06/11 01:51:19;;;;;;;5.40;2.42;;;21.50;99.90;;;;;;2099574;28;20541;-70
2022/06/11 01:53:04;;;;;;;5.68;2.30;;;21.50;99.90;;;;;;2097348;28;20519;-70
2022/06/11 01:54:20;;;;;;;3.45;1.85;;;21.40;99.90;;;;;;2085989;28;20040;-70
2022/06/11 01:55:47;;;;;;;6.25;2.22;;;21.40;99.90;;;;;;2091777;28;20028;-70
2022/06/11 01:57:02;;;;;;;4.75;1.90;;;21.40;99.90;;;;;;2095719;28;20476;-70
2022/06/11 01:58:37;;;;;;;4.90;2.10;;;21.40;99.90;;;;;;2092520;28;20025;-70
2022/06/11 02:00:09;;;;;;;5.38;2.35;;;21.30;99.90;;;;;;2093576;28;20076;-70
2022/06/11 02:01:24;;;;;;;6.00;2.38;;;21.30;99.90;;;;;;2091157;28;20041;-70
2022/06/11 02:02:30;;;;;;;5.50;2.28;;;21.30;99.90;;;;;;2095264;28;20036;-70
2022/06/11 02:03:37;;;;;;;7.30;2.20;;;21.30;99.90;;;;;;2096078;28;20063;-70
2022/06/11 02:04:38;;;;;;;3.10;1.92;;;21.30;99.90;;;;;;2095225;28;20376;-70
2022/06/11 02:05:57;;;;;;;4.28;2.22;;;21.30;99.90;;;;;;2097910;28;20047;-70
2022/06/11 02:07:06;;;;;;;5.63;2.22;;;21.30;99.90;;;;;;2096011;28;20020;-70
2022/06/11 02:08:45;;;;;;;6.13;2.47;;;21.30;99.90;;;;;;2097252;28;20040;-70
2022/06/11 02:09:55;;;;;;;6.18;2.58;;;21.30;99.90;;;;;;2112180;27;20019;-70
2022/06/11 02:11:26;;;;;;;4.63;2.58;;;21.20;99.90;;;;;;2107483;28;20020;-70
2022/06/11 02:12:36;;;;;;;4.55;2.00;;;21.20;99.90;;;;;;2096905;28;20043;-70
2022/06/11 02:13:42;;;;;;;6.35;2.40;;;21.20;99.90;;;;;;2094535;28;20023;-70
2022/06/11 02:14:52;;;;;;;4.90;2.25;;;21.20;99.90;;;;;;2097732;28;20028;-70
2022/06/11 02:16:08;;;;;;;6.43;2.08;;;21.20;99.90;;;;;;2095195;28;20106;-70
2022/06/11 02:17:20;;;;;;;9.23;2.72;;;21.10;99.90;;;;;;2095187;28;20036;-70
2022/06/11 02:18:24;;;;;;;5.90;2.17;;;21.10;99.90;;;;;;2097281;28;20067;-69
2022/06/11 02:19:30;;;;;;;4.47;2.17;;;21.10;99.90;;;;;;2097486;28;20032;-69
2022/06/11 02:20:37;;;;;;;6.45;2.25;;;21.10;99.90;;;;;;2091027;28;20150;-69
2022/06/11 02:21:46;;;;;;;3.40;2.25;;;21.10;99.90;;;;;;2098439;28;20681;-69
2022/06/11 02:22:53;;;;;;;5.32;2.60;;;21.10;99.90;;;;;;2098493;28;20043;-69
2022/06/11 02:24:09;;;;;;;8.18;2.60;;;21.00;99.90;;;;;;2096716;28;20115;-69
2022/06/11 02:25:34;;;;;;;4.40;2.20;;;21.10;99.90;;;;;;2092593;28;20159;-69
2022/06/11 02:26:42;;;;;;;5.95;2.67;;;21.00;99.90;;;;;;2092943;28;20047;-69
2022/06/11 02:27:46;;;;;;;3.90;2.13;;;21.00;99.90;;;;;;2098902;28;20073;-69
2022/06/11 02:28:49;;;;;;;8.25;2.75;;;21.00;99.90;;;;;;2098407;28;20032;-69
2022/06/11 02:29:53;;;;;;;5.95;2.65;;;20.90;99.90;;;;;;2098028;28;20036;-69
2022/06/11 02:30:59;;;;;;;6.43;2.63;;;20.90;99.90;;;;;;2098005;28;20453;-69
2022/06/11 02:32:09;;;;;;;4.25;2.50;;;20.90;99.90;;;;;;2096866;28;20040;-69
2022/06/11 02:33:11;;;;;;;;;;;20.90;99.90;;;;;;2096684;28;20050;-69
2022/06/11 02:34:15;;;;;;;4.07;2.10;;;20.80;99.90;;;;;;2096251;28;20007;-69
2022/06/11 02:35:44;;;;;;;4.43;2.00;;;20.80;99.90;;;;;;2096798;28;20028;-69
2022/06/11 02:37:05;;;;;;;6.75;2.05;;;20.80;99.90;;;;;;2096268;28;20120;-69
2022/06/11 02:38:10;;;;;;;3.80;1.98;;;20.70;99.90;;;;;;2095381;28;20052;-69
2022/06/11 02:39:11;;;;;;;4.22;2.28;;;20.70;99.90;;;;;;2093218;28;20095;-69
2022/06/11 02:40:23;;;;;;;5.93;2.60;;;20.70;99.90;;;;;;2096554;28;20017;-69
2022/06/11 02:41:28;;;;;;;4.35;2.20;;;20.70;99.90;;;;;;2094477;28;20025;-69
2022/06/11 02:42:30;;;;;;;5.03;2.58;;;20.70;99.90;;;;;;2096717;28;20119;-69
2022/06/11 02:43:31;;;;;;;7.80;2.50;;;20.60;99.90;;;;;;2095225;28;20086;-69
2022/06/11 02:44:32;;;;;;;4.03;2.30;;;20.60;99.90;;;;;;2096509;28;20094;-69
2022/06/11 02:45:32;;;;;;;3.70;2.15;;;20.60;99.90;;;;;;2096430;28;20388;-69
2022/06/11 02:46:43;;;;;;;5.85;2.20;;;20.60;99.90;;;;;;2094764;28;20028;-69
2022/06/11 02:47:46;;;;;;;5.95;2.63;;;20.50;99.90;;;;;;2094535;28;20541;-69
2022/06/11 02:48:47;;;;;;;6.93;2.53;;;20.50;99.90;;;;;;2096577;28;20036;-70
2022/06/11 02:49:48;;;;;;;6.72;2.53;;;20.50;99.90;;;;;;2094632;28;20028;-70
2022/06/11 02:50:49;;;;;;;4.75;2.22;;;20.50;99.90;;;;;;2098664;28;20120;-70
2022/06/11 02:51:53;;;;;;;6.57;2.72;;;20.50;99.90;;;;;;2098981;28;20039;-70
2022/06/11 02:52:54;;;;;;;4.00;2.30;;;20.40;99.90;;;;;;2093409;28;20066;-70
2022/06/11 02:53:55;;;;;;;5.22;1.80;;;20.40;99.90;;;;;;2098049;28;20028;-70
2022/06/11 02:54:56;;;;;;;5.88;2.35;;;20.40;99.90;;;;;;2096603;28;20024;-70
2022/06/11 02:55:56;;;;;;;5.10;2.20;;;20.40;99.90;;;;;;2094040;28;20074;-70
2022/06/11 02:57:00;;;;;;;7.57;2.50;;;20.30;99.90;;;;;;2094607;28;20048;-70
2022/06/11 02:58:01;;;;;;;7.78;2.42;;;20.30;99.90;;;;;;2095379;28;20024;-70
2022/06/11 02:59:03;;;;;;;6.32;2.53;;;20.30;99.90;;;;;;2097769;28;20035;-70
2022/06/11 03:00:07;;;;;;;5.93;2.42;;;20.30;99.90;;;;;;2098748;28;20459;-70
2022/06/11 03:01:09;;;;;;;5.28;2.25;;;20.30;99.90;;;;;;2098024;28;20036;-69
2022/06/11 03:02:10;;;;;;;3.97;2.58;;;20.20;99.90;;;;;;2094975;28;20021;-69
2022/06/11 03:03:11;;;;;;;4.80;2.42;;;20.20;99.90;;;;;;2095000;28;20044;-69
2022/06/11 03:04:12;;;;;;;4.57;2.15;;;20.20;99.90;;;;;;2094500;28;20021;-69
2022/06/11 03:05:17;;;;;;;4.35;2.30;;;20.10;99.90;;;;;;2095140;28;20441;-69
2022/06/11 03:06:19;;;;;;;8.13;2.47;;;20.10;99.90;;;;;;2096571;28;20423;-69
2022/06/11 03:07:19;;;;;;;4.95;2.63;;;20.10;99.90;;;;;;2095278;28;20528;-69
2022/06/11 03:08:21;;;;;;;7.10;3.50;;;20.00;99.90;;;;;;2097402;28;20582;-69
2022/06/11 03:09:27;;;;;;;4.20;2.25;;;20.00;99.90;;;;;;2096553;28;20024;-69
2022/06/11 03:10:29;;;;;;;7.05;2.90;;;20.00;99.90;;;;;;2094327;28;20503;-69
2022/06/11 03:11:30;;;;;;;5.80;3.00;;;20.00;99.90;;;;;;2096367;28;20093;-69
2022/06/11 03:12:30;;;;;;;4.80;2.75;;;19.90;99.90;;;;;;2095482;28;20033;-69
2022/06/11 03:13:31;;;;;;;5.60;2.85;;;19.90;99.90;;;;;;2094910;28;20434;-69
2022/06/11 03:14:32;;;;;;;3.45;2.53;;;19.90;99.90;;;;;;2096728;28;20031;-69
2022/06/11 03:15:33;;;;;;;5.05;2.55;;;19.90;99.90;;;;;;2096357;28;20663;-69
2022/06/11 03:16:35;;;;;;;6.82;2.53;;;19.80;99.90;;;;;;2097971;28;20040;-69
2022/06/11 03:17:36;;;;;;;4.63;2.50;;;19.80;99.90;;;;;;2094445;28;20492;-69
2022/06/11 03:18:36;;;;;;;8.75;3.00;;;19.80;99.90;;;;;;2095412;28;20417;-69
2022/06/11 03:19:37;;;;;;;5.70;3.03;;;19.80;99.90;;;;;;2098044;28;20024;-69
2022/06/11 03:20:38;;;;;;;4.32;2.30;;;19.70;99.90;;;;;;2094627;28;20017;-69
2022/06/11 03:21:40;;;;;;;7.70;2.90;;;19.70;99.90;;;;;;2095609;28;20516;-70
2022/06/11 03:22:41;;;;;;;5.55;2.60;;;19.70;99.90;;;;;;2097314;28;20029;-70
2022/06/11 03:23:43;;;;;;;4.00;2.67;;;19.70;99.90;;;;;;2092314;28;20031;-69
2022/06/11 03:24:44;;;;;;;5.60;2.58;;;19.70;99.90;;;;;;2096254;28;20012;-69
2022/06/11 03:25:46;;;;;;;5.97;2.65;;;19.70;99.90;;;;;;2094123;28;20025;-69
2022/06/11 03:26:48;;;;;;;8.38;2.92;;;19.70;99.90;;;;;;2095523;28;20021;-69
2022/06/11 03:27:49;;;;;;;10.00;3.45;;;19.60;99.90;;;;;;2097342;28;20393;-69
2022/06/11 03:28:51;;;;;;;9.30;2.58;;;19.60;99.90;;;;;;2094358;28;20028;-69
2022/06/11 03:29:52;;;;;;;4.88;2.60;;;19.60;99.90;;;;;;2097008;28;20020;-69
2022/06/11 03:30:54;;;;;;;9.13;3.00;;;19.60;99.90;;;;;;2096507;28;20056;-69
2022/06/11 03:31:55;;;;;;;4.47;2.42;;;19.60;99.90;;;;;;2095419;28;20042;-69
2022/06/11 03:32:55;;;;;;;4.80;2.88;;;19.60;99.90;;;;;;2096177;28;20385;-69
2022/06/11 03:33:56;;;;;;;6.30;2.45;;;19.50;99.90;;;;;;2096403;28;20470;-69
2022/06/11 03:34:56;;;;;;;6.95;3.22;;;19.50;99.90;;;;;;2094033;28;20047;-69
2022/06/11 03:35:57;;;;;;;5.72;2.58;;;19.50;99.90;;;;;;2096655;28;20025;-69
2022/06/11 03:36:58;;;;;;;6.95;3.38;;;19.50;99.90;;;;;;2095214;28;20024;-69
2022/06/11 03:37:59;;;;;;;4.75;2.90;;;19.50;99.90;;;;;;2094694;28;20094;-69
2022/06/11 03:39:01;;;;;;;6.95;3.20;;;19.50;99.90;;;;;;2097310;28;20028;-69
2022/06/11 03:40:02;;;;;;;4.97;3.08;;;19.50;99.90;;;;;;2095404;28;20530;-69
2022/06/11 03:41:04;;;;;;;6.30;3.00;;;19.50;99.90;;;;;;2098159;28;20511;-69
2022/06/11 03:42:05;;;;;;;7.95;3.20;;;19.50;99.90;;;;;;2096758;28;20484;-69
2022/06/11 03:43:06;;;;;;;6.20;3.42;;;19.40;99.90;;;;;;2096513;28;20024;-69
2022/06/11 03:44:07;;;;;;;7.95;3.05;;;19.40;99.90;;;;;;2095958;28;20016;-69
2022/06/11 03:45:09;;;;;;;5.00;2.95;;;19.40;99.90;;;;;;2094871;28;20032;-69
2022/06/11 03:46:10;;;;;;;4.07;2.70;;;19.40;99.90;;;;;;2096853;28;20384;-69
2022/06/11 03:47:11;;;;;;;5.65;3.05;;;19.40;99.90;;;;;;2097088;28;20064;-69
2022/06/11 03:48:12;;;;;;;4.63;3.03;;;19.40;99.90;;;;;;2094038;28;20059;-69
2022/06/11 03:49:13;;;;;;;5.55;2.70;;;19.40;99.90;;;;;;2097746;28;20116;-69
2022/06/11 03:50:24;;;;;;;5.80;3.17;;;19.40;99.90;;;;;;2096832;28;20594;-69
2022/06/11 03:51:25;;;;;;;7.47;3.22;;;19.40;99.90;;;;;;2094104;28;20037;-69
2022/06/11 03:52:28;;;;;;;6.60;3.88;;;19.30;99.90;;;;;;2097374;28;20028;-69
2022/06/11 03:53:29;;;;;;;6.55;2.95;;;19.30;99.90;;;;;;2095983;28;20067;-69
2022/06/11 03:54:30;;;;;;;6.75;3.00;;;19.40;99.90;;;;;;2094796;28;20086;-69
2022/06/11 03:55:31;;;;;;;4.72;2.80;;;19.40;99.90;;;;;;2095980;28;20029;-69
2022/06/11 03:56:32;;;;;;;6.53;3.10;;;19.40;99.90;;;;;;2097489;28;20029;-69
2022/06/11 03:57:34;;;;;;;6.25;2.72;;;19.50;99.90;;;;;;2097475;28;20057;-69
2022/06/11 03:58:35;;;;;;;4.45;2.88;;;19.50;99.90;;;;;;2097142;28;20620;-69
2022/06/11 03:59:36;;;;;;;7.50;3.38;;;19.60;99.90;;;;;;2095431;28;20372;-69
2022/06/11 04:01:58;;;;;;;5.68;2.53;;;19.80;99.90;;;;;;2096981;28;20095;-69
2022/06/11 04:02:59;;;;;;;4.40;2.72;;;19.90;99.90;;;;;;2094311;28;20009;-69
2022/06/11 04:04:03;;;;;;;5.50;2.55;;;20.00;99.90;;;;;;2100465;28;20089;-69
2022/06/11 04:05:05;;;;;;;6.55;2.85;;;20.20;99.90;;;;;;2097883;28;20024;-69
2022/06/11 04:06:06;;;;;;;6.28;2.63;;;20.30;99.90;;;;;;2094082;28;20117;-69
2022/06/11 04:07:07;;;;;;;6.65;3.50;;;20.50;99.90;;;;;;2097817;28;20073;-69
2022/06/11 04:08:09;;;;;;;5.18;2.67;;;20.60;99.90;;;;;;2094966;28;20036;-69
2022/06/11 04:09:14;;;;;;;4.15;2.30;;;20.70;99.90;;;;;;2095609;28;20115;-69
2022/06/11 04:10:15;;;;;;;9.02;3.30;;;20.90;99.90;;;;;;2096663;28;20107;-69
2022/06/11 04:11:17;;;;;;;5.90;2.78;;;21.10;99.90;;;;;;2095477;28;20039;-69
2022/06/11 04:12:18;;;;;;;6.60;2.95;;;21.40;99.90;;;;;;2095881;28;20067;-69
2022/06/11 04:13:21;;;;;;;8.35;2.85;;;21.70;99.90;;;;;;2098790;28;20024;-69
2022/06/11 04:14:21;;;;;;;6.88;3.17;;;22.00;99.90;;;;;;2094542;28;20055;-70
2022/06/11 04:15:22;;;;;;;7.00;2.42;;;22.40;99.90;;;;;;2096442;28;20047;-70
2022/06/11 04:16:31;;;;;;;5.07;2.25;;;22.60;99.90;;;;;;2096049;28;20032;-70
2022/06/11 04:17:33;;;;;;;8.00;2.47;;;23.00;99.90;;;;;;2093770;28;20017;-70
2022/06/11 04:18:40;;;;;;;13.32;3.17;;;23.20;99.90;;;;;;2099779;28;20028;-70
2022/06/11 04:19:44;;;;;;;5.80;2.40;;;23.50;99.90;;;;;;2096323;28;20031;-70
2022/06/11 04:20:45;;;;;;;5.63;2.67;;;23.70;99.90;;;;;;2097264;28;20029;-70
2022/06/11 04:21:46;;;;;;;8.02;3.00;;;24.00;99.90;;;;;;2097664;28;20025;-70
2022/06/11 04:22:47;;;;;;;6.20;2.35;;;24.20;99.10;;;;;;2095269;28;20469;-70
2022/06/11 04:23:51;;;;;;;4.95;2.53;;;24.40;97.60;;;;;;2099135;28;21168;-70
2022/06/11 04:24:52;;;;;;;6.55;2.50;;;24.60;96.10;;;;;;2097789;28;20016;-70
2022/06/11 04:25:53;;;;;;;6.90;2.40;;;24.60;94.90;;;;;;2097079;28;20020;-70
2022/06/11 04:26:56;;;;;;;5.38;2.70;;;24.70;93.90;;;;;;2097150;28;20027;-70
2022/06/11 04:27:57;;;;;;;3.08;2.33;;;24.70;92.80;;;;;;2095454;28;20375;-70
2022/06/11 04:29:00;;;;;;;5.13;2.50;;;24.60;93.30;;;;;;2093885;28;20048;-70
2022/06/11 04:30:00;;;;;;;6.13;2.15;;;24.50;94.40;;;;;;2097412;28;20112;-70
2022/06/11 04:31:03;;;;;;;5.22;2.53;;;24.40;94.20;;;;;;2096594;28;20044;-70
2022/06/11 04:32:06;;;;;;;6.97;2.47;;;24.30;95.50;;;;;;2093724;28;20107;-70
2022/06/11 04:33:07;;;;;;;4.80;2.05;;;24.20;96.60;;;;;;2095830;28;20109;-70
2022/06/11 04:34:07;;;;;;;4.93;2.22;;;24.20;97.40;;;;;;2099211;28;20101;-70
2022/06/11 04:35:08;;;;;;;3.70;2.22;;;24.10;97.80;;;;;;2094616;28;20029;-70
2022/06/11 04:36:09;;;;;;;3.15;1.90;;;24.00;98.60;;;;;;2097324;28;20023;-70
2022/06/11 04:37:13;;;;;;;4.63;2.05;;;24.00;99.10;;;;;;2094801;28;20404;-70
2022/06/11 04:38:14;;;;;;;3.65;1.73;;;24.00;98.80;;;;;;2094529;28;20025;-70
2022/06/11 04:39:18;;;;;;;6.35;2.35;;;24.00;99.90;;;;;;2094267;28;20103;-70
2022/06/11 04:40:18;;;;;;;5.10;2.22;;;24.00;99.90;;;;;;2095131;28;20392;-70
2022/06/11 04:41:21;;;;;;;6.65;2.40;;;24.00;99.90;;;;;;2096851;28;20108;-70
2022/06/11 04:42:22;;;;;;;4.15;1.80;;;24.10;99.90;;;;;;2099373;28;20033;-70
2022/06/11 04:43:23;;;;;;;2.25;1.65;;;24.10;99.90;;;;;;2094939;28;20028;-70
2022/06/11 04:44:24;;;;;;;6.13;2.05;;;24.10;99.90;;;;;;2097620;28;20052;-70
2022/06/11 04:45:24;;;;;;;3.65;2.03;;;24.20;99.90;;;;;;2095389;28;20036;-70
2022/06/11 04:46:25;;;;;;;4.53;2.00;;;24.20;99.90;;;;;;2095451;28;20438;-70
2022/06/11 04:47:28;;;;;;;5.63;2.13;;;24.20;99.90;;;;;;2096202;28;20029;-70
2022/06/11 04:48:29;;;;;;;6.43;2.28;;;24.20;99.60;;;;;;2095977;28;20032;-70
2022/06/11 04:49:29;;;;;;;5.63;2.15;;;24.20;99.90;;;;;;2112655;27;20047;-70
2022/06/11 04:50:31;;;;;;;5.35;2.30;;;24.30;99.90;;;;;;2115135;28;20054;-70
2022/06/11 04:51:32;;;;;;;6.43;2.47;;;24.30;99.30;;;;;;2097594;28;20020;-70
2022/06/11 04:52:33;;;;;;;3.00;2.08;;;24.40;99.70;;;;;;2097085;28;20056;-70
2022/06/11 04:53:33;;;;;;;6.50;2.17;;;24.40;98.50;;;;;;2095883;28;20036;-70
2022/06/11 04:54:34;;;;;;;5.72;2.38;;;24.50;98.80;;;;;;2095553;28;20150;-70
2022/06/11 04:55:35;;;;;;;5.70;2.42;;;24.50;98.50;;;;;;2095796;28;20116;-70
2022/06/11 04:56:36;;;;;;;7.22;2.30;;;24.50;98.60;;;;;;2095245;28;20024;-70
2022/06/11 04:57:37;;;;;;;4.68;2.45;;;24.60;97.90;;;;;;2098098;28;20040;-70
2022/06/11 04:58:38;;;;;;;5.93;2.45;;;24.60;97.20;;;;;;2098673;28;20021;-70
2022/06/11 04:59:38;;;;;;;6.32;2.30;;;24.70;96.70;;;;;;2095120;28;20024;-70
2022/06/11 05:00:39;;;;;;;5.82;2.60;;;24.70;96.70;;;;;;2095444;28;20058;-70
2022/06/11 05:01:41;;;;;;;4.32;2.45;;;24.80;95.80;;;;;;2092097;28;20017;-70
2022/06/11 05:02:41;;;;;;;7.70;2.58;;;24.80;96.30;;;;;;2093755;28;20377;-70
2022/06/11 05:03:42;;;;;;;5.75;2.50;;;24.80;95.60;;;;;;2096531;28;20055;-70
2022/06/11 05:04:43;;;;;;;5.18;2.60;;;24.90;95.70;;;;;;2096483;28;20069;-70
2022/06/11 05:05:44;;;;;;;6.25;2.40;;;24.90;95.20;;;;;;2095923;28;20055;-70
2022/06/11 05:06:46;;;;;;;4.22;2.63;;;25.00;95.10;;;;;;2095192;28;20028;-70
2022/06/11 05:07:48;;;;;;;4.38;2.35;;;25.00;94.90;;;;;;2092696;28;20020;-68
2022/06/11 05:08:49;;;;;;;4.97;2.55;;;25.00;94.60;;;;;;2095753;28;20044;-68
2022/06/11 05:09:50;;;;;;;4.53;2.40;;;25.10;94.50;;;;;;2094241;28;20051;-68
2022/06/11 05:10:51;;;;;;;4.93;2.67;;;25.20;93.30;;;;;;2095185;28;20103;-68
2022/06/11 05:11:52;;;;;;;5.63;2.40;;;25.20;93.40;;;;;;2093851;28;20039;-68
2022/06/11 05:12:53;;;;;;;6.25;2.28;;;25.30;93.00;;;;;;2095985;28;20130;-68
2022/06/11 05:13:54;;;;;;;4.85;2.25;;;25.30;92.30;;;;;;2098429;28;20027;-68
2022/06/11 05:14:55;;;;;;;5.32;2.38;;;25.30;92.40;;;;;;2095291;28;20032;-68
2022/06/11 05:15:57;;;;;;;6.50;2.28;;;25.40;92.40;;;;;;2094721;28;20028;-68
2022/06/11 05:16:59;;;;;;;6.53;2.22;;;25.40;92.20;;;;;;2094154;28;20480;-68
2022/06/11 05:17:59;;;;;;;3.95;2.05;;;25.50;92.20;;;;;;2095227;28;20021;-68
2022/06/11 05:19:01;;;;;;;7.38;2.30;;;25.50;91.80;;;;;;2095595;28;20025;-68
2022/06/11 05:20:02;;;;;;;6.20;2.42;;;25.60;91.60;;;;;;2095202;28;20075;-68
2022/06/11 05:21:03;;;;;;;4.40;2.13;;;25.60;91.00;;;;;;2096905;28;20025;-68
2022/06/11 05:22:05;;;;;;;3.65;2.47;;;25.70;91.00;;;;;;2097420;28;20021;-68
2022/06/11 05:23:05;;;;;;;4.88;2.50;;;25.80;90.40;;;;;;2095348;28;20016;-68
2022/06/11 05:24:06;;;;;;;4.15;2.33;;;25.80;90.40;;;;;;2095889;28;20028;-68
2022/06/11 05:25:08;;;;;;;4.05;2.13;;;25.90;90.10;;;;;;2096368;28;20031;-68
2022/06/11 05:26:10;;;;;;;4.85;2.28;;;25.90;89.20;;;;;;2095258;28;20029;-68
2022/06/11 05:27:19;;;;;;;5.78;2.60;;;26.00;88.50;;;;;;2096667;28;20036;-68
2022/06/11 05:28:24;;;;;;;4.18;2.40;;;26.00;87.10;;;;;;2095004;28;20029;-68
2022/06/11 05:29:35;;;;;;;4.68;2.22;;;26.10;86.50;;;;;;2095311;28;20418;-68
2022/06/11 05:30:37;;;;;;;7.88;2.17;;;26.20;85.10;;;;;;2093732;28;20024;-68
2022/06/11 05:31:38;;;;;;;10.38;2.88;;;26.20;85.30;;;;;;2095344;28;20381;-68
2022/06/11 05:32:41;;;;;;;7.10;2.40;;;26.20;86.20;;;;;;2095860;28;20051;-68
2022/06/11 05:33:42;;;;;;;10.57;2.40;;;26.30;85.60;;;;;;2093731;28;20025;-69
2022/06/11 05:34:44;;;;;;;5.45;2.50;;;26.30;83.20;;;;;;2092324;28;20025;-69
2022/06/11 05:35:45;;;;;;;6.95;2.50;;;26.40;83.20;;;;;;2091891;28;20025;-68
2022/06/11 05:36:46;;;;;;;4.82;2.30;;;26.40;82.20;;;;;;2092873;28;20075;-69
2022/06/11 05:37:48;;;;;;;6.25;2.60;;;26.40;81.30;;;;;;2093756;28;20025;-69
2022/06/11 05:38:48;;;;;;;6.47;2.28;;;26.50;81.50;;;;;;2095567;28;20028;-69
2022/06/11 05:39:49;;;;;;;5.95;2.83;;;26.50;81.40;;;;;;2093336;28;20059;-69
2022/06/11 05:40:51;;;;;;;7.35;2.45;;;26.50;82.30;;;;;;2095650;28;20070;-69
2022/06/11 05:41:52;;;;;;;5.95;2.15;;;26.60;80.20;;;;;;2093005;28;20047;-69
2022/06/11 05:42:53;;;;;;;5.50;2.13;;;26.60;79.60;;;;;;2095570;28;20012;-69
2022/06/11 05:43:54;;;;;;;5.28;2.20;;;26.60;79.70;;;;;;2095732;28;20096;-68